Time;durP1;ratioP1;P1;durP2;ratioP2;P2;SDS_P1;SDS_P2;PMS_P1;PMS_P2;Temp;Humidity;BMP_temperature;BMP_pressure;BME280_temperature;BME280_humidity;BME280_pressure;Samples;Min_cycle;Max_cycle;Signal;HPM_P1;HPM_P2
2022/06/10 00:00:03;;;;;;;1.02;0.93;;;;;22.20;100986.00;;;;2069460;28;20264;-58
2022/06/10 00:01:03;;;;;;;2.17;0.98;;;;;22.20;100987.00;;;;2070122;28;20250;-56
2022/06/10 00:02:04;;;;;;;0.80;0.80;;;;;22.20;100989.00;;;;2070203;28;20222;-57
2022/06/10 00:03:05;;;;;;;1.47;1.10;;;;;22.20;100991.00;;;;2070208;28;20284;-58
2022/06/10 00:04:05;;;;;;;1.45;1.05;;;;;22.20;100988.00;;;;2061603;28;20805;-57
2022/06/10 00:05:06;;;;;;;1.30;1.00;;;;;22.00;100984.00;;;;2061964;28;20225;-58
2022/06/10 00:06:07;;;;;;;1.67;1.30;;;;;22.20;100988.00;;;;2069609;28;20214;-58
2022/06/10 00:07:07;;;;;;;0.90;0.80;;;;;22.20;100985.00;;;;2061865;28;20553;-57
2022/06/10 00:08:09;;;;;;;1.10;1.03;;;;;22.20;100986.00;;;;2069888;28;20549;-58
2022/06/10 00:09:10;;;;;;;1.30;1.20;;;;;22.20;100983.00;;;;2070051;28;20338;-59
2022/06/10 00:10:11;;;;;;;1.30;1.00;;;;;22.20;100986.00;;;;2061164;28;20230;-57
2022/06/10 00:11:11;;;;;;;1.58;1.13;;;;;22.20;100990.00;;;;2061823;28;20215;-57
2022/06/10 00:12:12;;;;;;;1.17;1.03;;;;;22.20;100983.00;;;;2061867;28;20214;-58
2022/06/10 00:13:13;;;;;;;1.10;1.00;;;;;22.20;100986.00;;;;2061687;28;20290;-56
2022/06/10 00:14:13;;;;;;;1.27;0.90;;;;;22.20;100986.00;;;;2061571;28;20217;-59
2022/06/10 00:15:14;;;;;;;0.97;0.87;;;;;22.20;100983.00;;;;2070024;28;20244;-58
2022/06/10 00:16:17;;;;;;;1.02;0.93;;;;;22.20;100999.00;;;;2069691;28;20214;-56
2022/06/10 00:17:18;;;;;;;1.70;1.10;;;;;22.20;100983.00;;;;2062246;28;20218;-57
2022/06/10 00:18:18;;;;;;;1.03;0.93;;;;;22.20;100983.00;;;;2069477;28;20413;-57
2022/06/10 00:19:18;;;;;;;1.30;1.00;;;;;22.20;100983.00;;;;2061457;28;20215;-58
2022/06/10 00:20:20;;;;;;;1.30;0.83;;;;;22.20;100983.00;;;;2061065;28;20227;-58
2022/06/10 00:21:20;;;;;;;1.45;0.90;;;;;22.20;100988.00;;;;2076591;28;20634;-59
2022/06/10 00:22:21;;;;;;;1.23;1.13;;;;;22.20;100982.00;;;;2069422;28;20229;-58
2022/06/10 00:23:21;;;;;;;0.97;0.83;;;;;22.20;100990.00;;;;2069425;28;20225;-56
2022/06/10 00:24:21;;;;;;;1.23;1.00;;;;;22.10;100978.00;;;;2078132;28;20217;-57
2022/06/10 00:25:22;;;;;;;1.67;1.07;;;;;22.10;100977.00;;;;2077915;28;20650;-58
2022/06/10 00:26:22;;;;;;;1.43;1.30;;;;;22.20;100978.00;;;;2077547;28;20690;-58
2022/06/10 00:27:22;;;;;;;0.90;0.80;;;;;22.10;100980.00;;;;2076763;28;20243;-61
2022/06/10 00:28:23;;;;;;;1.77;1.20;;;;;22.10;100985.00;;;;2069738;28;20229;-61
2022/06/10 00:29:24;;;;;;;1.17;0.90;;;;;22.10;100983.00;;;;2061051;28;20317;-56
2022/06/10 00:30:26;;;;;;;1.30;1.10;;;;;22.10;100979.00;;;;2061295;28;20227;-57
2022/06/10 00:31:26;;;;;;;1.00;0.90;;;;;22.10;100980.00;;;;2070613;28;20834;-57
2022/06/10 00:32:27;;;;;;;1.13;0.90;;;;;22.10;100981.00;;;;2072073;28;20306;-57
2022/06/10 00:33:27;;;;;;;1.30;1.10;;;;;22.10;100984.00;;;;2078727;28;20217;-58
2022/06/10 00:34:28;;;;;;;1.30;1.10;;;;;22.10;100976.00;;;;2078528;28;20263;-57
2022/06/10 00:35:28;;;;;;;1.10;1.00;;;;;22.10;100980.00;;;;2078186;28;20247;-57
2022/06/10 00:36:29;;;;;;;1.20;1.10;;;;;22.10;100974.00;;;;2077610;28;20458;-57
2022/06/10 00:37:29;;;;;;;1.07;0.80;;;;;22.10;100977.00;;;;2069598;28;20242;-58
2022/06/10 00:38:30;;;;;;;1.20;1.10;;;;;22.10;100976.00;;;;2078011;28;20586;-57
2022/06/10 00:39:30;;;;;;;0.93;0.90;;;;;22.10;100973.00;;;;2078188;28;20218;-58
2022/06/10 00:40:36;;;;;;;1.10;0.90;;;;;22.10;100971.00;;;;2077531;28;20605;-58
2022/06/10 00:41:40;;;;;;;1.25;1.15;;;;;22.10;100974.00;;;;2070336;28;20224;-56
2022/06/10 00:42:41;;;;;;;1.20;1.10;;;;;22.10;100978.00;;;;2077922;28;20624;-58
2022/06/10 00:43:41;;;;;;;1.20;1.00;;;;;22.10;100975.00;;;;2078606;28;20279;-57
2022/06/10 00:44:44;;;;;;;1.13;1.03;;;;;22.10;100977.00;;;;2078600;28;20217;-58
2022/06/10 00:46:11;;;;;;;1.55;0.85;;;;;22.10;100977.00;;;;2069463;28;20276;-57
2022/06/10 00:47:45;;;;;;;1.40;1.02;;;;;22.10;100969.00;;;;2066906;28;20212;-57
2022/06/10 00:49:05;;;;;;;1.13;0.90;;;;;22.10;100976.00;;;;2060655;28;20211;-56
2022/06/10 00:50:19;;;;;;;1.30;1.00;;;;;22.10;100974.00;;;;2077665;28;20217;-58
2022/06/10 00:51:37;;;;;;;1.15;1.05;;;;;22.10;100966.00;;;;2078455;28;20970;-57
2022/06/10 00:52:39;;;;;;;1.15;1.02;;;;;22.10;100973.00;;;;2066603;28;20316;-57
2022/06/10 00:53:39;;;;;;;1.10;0.95;;;;;22.10;100975.00;;;;2070346;28;20242;-58
2022/06/10 00:54:41;;;;;;;1.10;0.90;;;;;22.10;100974.00;;;;2061594;28;20313;-58
2022/06/10 00:55:42;;;;;;;1.45;0.90;;;;;22.10;100974.00;;;;2061386;28;20218;-58
2022/06/10 00:56:55;;;;;;;2.25;1.10;;;;;22.10;100976.00;;;;2069933;28;20294;-57
2022/06/10 00:58:00;;;;;;;1.25;1.15;;;;;22.10;100972.00;;;;2069863;28;20253;-55
2022/06/10 00:59:04;;;;;;;1.30;1.00;;;;;22.10;100979.00;;;;2069509;28;20267;-57
2022/06/10 01:00:08;;;;;;;1.30;0.90;;;;;22.10;100975.00;;;;2069341;28;20732;-58
2022/06/10 01:01:09;;;;;;;1.15;1.05;;;;;22.10;100975.00;;;;2069663;28;20398;-58
2022/06/10 01:02:17;;;;;;;1.23;1.13;;;;;22.10;100973.00;;;;2069273;28;20428;-57
2022/06/10 01:03:18;;;;;;;1.25;1.00;;;;;22.10;100971.00;;;;2062557;28;20309;-58
2022/06/10 01:04:18;;;;;;;1.60;1.30;;;;;22.10;100970.00;;;;2062123;28;20761;-58
2022/06/10 01:05:21;;;;;;;1.10;1.00;;;;;22.10;100971.00;;;;2061230;28;20215;-55
2022/06/10 01:06:22;;;;;;;1.08;0.90;;;;;22.10;100966.00;;;;2061799;28;20332;-57
2022/06/10 01:07:26;;;;;;;1.33;0.90;;;;;22.10;100968.00;;;;2069470;28;20213;-58
2022/06/10 01:08:27;;;;;;;1.65;0.77;;;;;22.10;100971.00;;;;2061305;28;20269;-57
2022/06/10 01:09:27;;;;;;;1.13;1.03;;;;;22.10;100971.00;;;;2060867;28;20699;-57
2022/06/10 01:10:27;;;;;;;1.33;1.10;;;;;22.10;100963.00;;;;2065887;28;20214;-56
2022/06/10 01:11:31;;;;;;;1.23;0.93;;;;;22.10;100976.00;;;;2060805;28;20579;-58
2022/06/10 01:12:38;;;;;;;2.35;1.20;;;;;22.10;100966.00;;;;2053400;28;20298;-59
2022/06/10 01:14:04;;;;;;;1.20;1.10;;;;;22.10;100969.00;;;;2061129;28;20219;-58
2022/06/10 01:15:29;;;;;;;1.00;0.90;;;;;22.10;100973.00;;;;2069581;28;20225;-59
2022/06/10 01:16:53;;;;;;;1.58;1.08;;;;;22.10;100971.00;;;;2074136;28;20210;-59
2022/06/10 01:18:09;;;;;;;1.13;0.80;;;;;22.10;100966.00;;;;2069501;28;20624;-59
2022/06/10 01:19:24;;;;;;;1.10;1.00;;;;;22.10;100965.00;;;;2067301;28;20218;-58
2022/06/10 01:20:46;;;;;;;1.00;0.90;;;;;22.10;100969.00;;;;2068625;28;20230;-58
2022/06/10 01:22:11;;;;;;;1.20;1.10;;;;;22.10;100967.00;;;;2068910;28;20249;-57
2022/06/10 01:23:29;;;;;;;1.10;1.00;;;;;22.10;100958.00;;;;2068484;28;20209;-57
2022/06/10 01:25:06;;;;;;;1.17;1.08;;;;;22.10;100966.00;;;;2060781;28;20245;-58
2022/06/10 01:26:27;;;;;;;3.58;1.10;;;;;22.10;100969.00;;;;2072163;28;20237;-59
2022/06/10 01:27:49;;;;;;;1.10;0.90;;;;;22.10;100967.00;;;;2070738;28;20593;-57
2022/06/10 01:29:10;;;;;;;2.10;0.80;;;;;22.10;100964.00;;;;2077310;28;20263;-58
2022/06/10 01:30:23;;;;;;;1.25;0.90;;;;;22.10;100966.00;;;;2077825;28;20602;-57
2022/06/10 01:31:27;;;;;;;1.00;0.90;;;;;22.10;100964.00;;;;2078358;28;20222;-57
2022/06/10 01:33:02;;;;;;;1.65;1.55;;;;;22.10;100967.00;;;;2069417;28;20225;-57
2022/06/10 01:34:21;;;;;;;1.55;1.00;;;;;22.10;100962.00;;;;2073476;28;20221;-56
2022/06/10 01:35:33;;;;;;;1.40;0.95;;;;;22.10;100942.00;;;;2073450;28;20210;-58
2022/06/10 01:36:52;;;;;;;1.75;1.10;;;;;22.10;100964.00;;;;2069025;28;20272;-58
2022/06/10 01:38:07;;;;;;;1.20;0.93;;;;;22.10;100962.00;;;;2064705;28;20218;-58
2022/06/10 01:39:23;;;;;;;1.58;1.13;;;;;22.10;100963.00;;;;2062687;28;20595;-57
2022/06/10 01:40:31;;;;;;;1.00;0.90;;;;;22.10;100962.00;;;;2063219;28;20254;-58
2022/06/10 01:41:38;;;;;;;1.05;0.70;;;;;22.10;100960.00;;;;2062665;28;20685;-57
2022/06/10 01:42:46;;;;;;;1.13;0.93;;;;;22.10;100965.00;;;;2060733;28;20314;-58
2022/06/10 01:44:08;;;;;;;1.05;0.90;;;;;22.10;100960.00;;;;2061471;28;21028;-58
2022/06/10 01:45:16;;;;;;;1.38;1.08;;;;;22.10;100959.00;;;;2057967;28;20213;-57
2022/06/10 01:46:38;;;;;;;1.25;1.02;;;;;22.10;100969.00;;;;2069235;28;20221;-58
2022/06/10 01:47:43;;;;;;;1.40;1.13;;;;;22.10;100967.00;;;;2063614;28;20661;-58
2022/06/10 01:48:46;;;;;;;1.13;1.02;;;;;22.00;100965.00;;;;2064459;28;20277;-57
2022/06/10 01:49:52;;;;;;;1.10;1.00;;;;;22.00;100965.00;;;;2069360;28;20264;-58
2022/06/10 01:51:08;;;;;;;1.10;1.00;;;;;22.10;100969.00;;;;2061033;28;20299;-57
2022/06/10 01:52:16;;;;;;;1.02;0.93;;;;;22.10;100968.00;;;;2068635;28;20220;-57
2022/06/10 01:53:26;;;;;;;1.10;1.00;;;;;22.10;100970.00;;;;2077560;28;20295;-57
2022/06/10 01:54:34;;;;;;;1.23;1.10;;;;;22.10;100964.00;;;;2070987;28;20222;-58
2022/06/10 01:55:46;;;;;;;1.23;1.10;;;;;22.10;100967.00;;;;2070548;28;20229;-56
2022/06/10 01:56:48;;;;;;;1.10;1.00;;;;;22.10;100967.00;;;;2077029;28;20646;-57
2022/06/10 01:57:54;;;;;;;1.33;1.23;;;;;22.00;100964.00;;;;2069311;28;20229;-56
2022/06/10 01:58:59;;;;;;;1.13;1.00;;;;;22.10;100963.00;;;;2062458;28;20215;-58
2022/06/10 02:00:04;;;;;;;1.15;1.05;;;;;22.00;100968.00;;;;2061921;28;20214;-57
2022/06/10 02:01:07;;;;;;;2.30;1.20;;;;;22.00;100973.00;;;;2052337;28;20350;-56
2022/06/10 02:02:10;;;;;;;1.20;1.10;;;;;22.00;100958.00;;;;2058250;28;20222;-57
2022/06/10 02:03:30;;;;;;;1.27;1.17;;;;;22.10;100974.00;;;;2061316;28;20211;-60
2022/06/10 02:04:32;;;;;;;1.88;1.20;;;;;22.10;100967.00;;;;2062773;28;20270;-60
2022/06/10 02:05:38;;;;;;;1.67;0.95;;;;;22.10;100975.00;;;;2058513;28;20222;-58
2022/06/10 02:06:53;;;;;;;1.58;1.27;;;;;22.10;100976.00;;;;2049377;28;20220;-59
2022/06/10 02:08:11;;;;;;;1.40;1.27;;;;;22.00;100973.00;;;;2064838;28;20276;-55
2022/06/10 02:09:15;;;;;;;1.05;0.90;;;;;22.00;100975.00;;;;2061931;28;20293;-55
2022/06/10 02:10:36;;;;;;;1.38;1.20;;;;;22.10;100980.00;;;;2058250;28;20716;-57
2022/06/10 02:11:38;;;;;;;1.23;1.13;;;;;22.00;100959.00;;;;2051615;28;20597;-58
2022/06/10 02:12:40;;;;;;;1.00;0.90;;;;;22.10;100982.00;;;;2050004;28;20211;-60
2022/06/10 02:14:21;;;;;;;1.13;1.00;;;;;22.10;100978.00;;;;2059898;28;20223;-60
2022/06/10 02:15:27;;;;;;;1.25;1.15;;;;;22.10;100975.00;;;;2060625;28;20683;-58
2022/06/10 02:16:30;;;;;;;1.10;1.00;;;;;22.00;100978.00;;;;2052133;28;20287;-58
2022/06/10 02:17:38;;;;;;;1.20;1.10;;;;;22.00;100984.00;;;;2057466;28;20230;-56
2022/06/10 02:18:47;;;;;;;0.77;0.77;;;;;22.00;100974.00;;;;2051739;28;20219;-56
2022/06/10 02:19:58;;;;;;;0.98;0.85;;;;;22.00;100975.00;;;;2053129;28;20763;-56
2022/06/10 02:21:02;;;;;;;1.27;1.00;;;;;22.00;100978.00;;;;2038977;28;20755;-57
2022/06/10 02:22:19;;;;;;;1.20;1.10;;;;;22.00;100985.00;;;;2056766;28;20247;-57
2022/06/10 02:23:22;;;;;;;1.20;1.00;;;;;22.00;100964.00;;;;2064996;28;20206;-58
2022/06/10 02:24:40;;;;;;;1.02;0.95;;;;;22.00;100977.00;;;;2062069;28;20230;-57
2022/06/10 02:25:42;;;;;;;1.20;1.10;;;;;22.00;100977.00;;;;2063178;28;20680;-58
2022/06/10 02:26:43;;;;;;;1.48;0.98;;;;;22.00;100981.00;;;;2049233;28;20220;-60
2022/06/10 02:27:46;;;;;;;1.03;0.93;;;;;22.00;100979.00;;;;2071722;28;20690;-61
2022/06/10 02:28:51;;;;;;;1.20;1.10;;;;;22.00;100975.00;;;;2063921;28;20218;-58
2022/06/10 02:30:10;;;;;;;1.20;1.10;;;;;22.00;100979.00;;;;2068906;28;20220;-59
2022/06/10 02:31:28;;;;;;;1.10;0.98;;;;;22.00;100983.00;;;;2065598;28;20683;-60
2022/06/10 02:32:29;;;;;;;1.15;0.98;;;;;22.00;100973.00;;;;2051800;28;20569;-58
2022/06/10 02:33:29;;;;;;;1.17;1.07;;;;;22.00;100978.00;;;;2055918;28;20218;-57
2022/06/10 02:34:30;;;;;;;1.20;1.00;;;;;22.00;100983.00;;;;2053970;28;20418;-55
2022/06/10 02:35:39;;;;;;;2.10;1.20;;;;;22.00;100985.00;;;;2060851;28;20305;-57
2022/06/10 02:36:51;;;;;;;1.45;1.05;;;;;22.00;100985.00;;;;2070936;28;20241;-58
2022/06/10 02:38:15;;;;;;;1.40;1.13;;;;;22.00;100987.00;;;;2064261;28;20218;-57
2022/06/10 02:39:23;;;;;;;0.80;0.80;;;;;22.00;100988.00;;;;2065619;28;20214;-57
2022/06/10 02:40:30;;;;;;;0.80;0.80;;;;;22.00;100984.00;;;;2063463;28;20223;-57
2022/06/10 02:41:42;;;;;;;1.00;0.90;;;;;22.00;100988.00;;;;2063091;28;20230;-55
2022/06/10 02:42:49;;;;;;;1.10;1.00;;;;;22.00;100997.00;;;;2064469;28;20211;-56
2022/06/10 02:44:16;;;;;;;1.15;1.05;;;;;22.00;100988.00;;;;2067224;28;20264;-58
2022/06/10 02:45:20;;;;;;;1.13;1.00;;;;;22.00;100989.00;;;;2062083;28;20249;-56
2022/06/10 02:46:24;;;;;;;1.00;0.90;;;;;22.00;100989.00;;;;2065197;28;20222;-55
2022/06/10 02:47:52;;;;;;;1.10;0.98;;;;;22.00;100992.00;;;;2062636;28;20293;-56
2022/06/10 02:49:07;;;;;;;1.13;1.02;;;;;22.00;100993.00;;;;2066884;28;20302;-56
2022/06/10 02:50:09;;;;;;;1.38;1.00;;;;;22.00;100987.00;;;;2070151;28;21202;-58
2022/06/10 02:51:09;;;;;;;1.30;1.20;;;;;22.00;100992.00;;;;2054704;28;20708;-57
2022/06/10 02:52:11;;;;;;;1.20;1.10;;;;;22.00;100995.00;;;;2062591;28;20215;-58
2022/06/10 02:53:12;;;;;;;1.05;0.95;;;;;22.00;100988.00;;;;2062202;28;20213;-58
2022/06/10 02:54:18;;;;;;;1.20;0.90;;;;;22.00;100996.00;;;;2054340;28;20239;-59
2022/06/10 02:55:23;;;;;;;1.23;1.02;;;;;22.00;101005.00;;;;2063670;28;20210;-58
2022/06/10 02:56:25;;;;;;;1.20;1.10;;;;;22.00;101004.00;;;;2062316;28;20225;-56
2022/06/10 03:01:11;;;;;;;1.10;1.00;;;;;22.00;101001.00;;;;2054892;28;20226;-56
2022/06/10 03:01:49;;;;;;;1.48;1.23;;;;;22.00;101003.00;;;;2068184;28;20214;-58
2022/06/10 03:03:10;;;;;;;1.10;1.00;;;;;22.00;100985.00;;;;2070034;28;20213;-58
2022/06/10 03:04:26;;;;;;;1.35;1.02;;;;;22.00;100999.00;;;;2070215;28;20304;-56
2022/06/10 03:05:38;;;;;;;1.80;1.17;;;;;22.00;100992.00;;;;2066064;28;20214;-58
2022/06/10 03:06:56;;;;;;;1.23;1.10;;;;;22.00;100996.00;;;;2057198;28;20218;-58
2022/06/10 03:08:31;;;;;;;1.30;0.90;;;;;22.00;100999.00;;;;2065207;28;20209;-58
2022/06/10 03:10:01;;;;;;;1.30;1.00;;;;;22.00;100996.00;;;;2069549;28;20730;-58
2022/06/10 03:11:25;;;;;;;1.40;1.10;;;;;22.00;101006.00;;;;2068821;28;20904;-58
2022/06/10 03:12:51;;;;;;;1.10;1.00;;;;;22.00;101005.00;;;;2065629;28;20226;-58
2022/06/10 03:14:02;;;;;;;1.20;1.05;;;;;22.00;101008.00;;;;2066778;28;20209;-57
2022/06/10 03:15:30;;;;;;;1.25;1.15;;;;;22.00;101003.00;;;;2063760;28;20790;-56
2022/06/10 03:16:41;;;;;;;2.97;1.20;;;;;22.00;100998.00;;;;2070522;28;20218;-57
2022/06/10 03:18:01;;;;;;;1.30;1.05;;;;;22.00;100995.00;;;;2070560;28;20221;-58
2022/06/10 03:19:22;;;;;;;1.05;0.90;;;;;22.00;101000.00;;;;2061645;28;20211;-58
2022/06/10 03:20:41;;;;;;;1.33;1.23;;;;;22.00;101016.00;;;;2064843;28;20312;-56
2022/06/10 03:22:10;;;;;;;1.40;1.30;;;;;22.00;101012.00;;;;2066078;28;20214;-56
2022/06/10 03:23:35;;;;;;;1.15;0.98;;;;;22.00;101016.00;;;;2061683;28;20280;-58
2022/06/10 03:24:55;;;;;;;1.00;0.90;;;;;22.00;101009.00;;;;2070679;28;20637;-57
2022/06/10 03:26:00;;;;;;;1.45;1.05;;;;;22.00;101010.00;;;;2067427;28;20225;-59
2022/06/10 03:27:11;;;;;;;1.35;1.00;;;;;22.00;101020.00;;;;2063993;28;20203;-58
2022/06/10 03:28:11;;;;;;;1.50;1.20;;;;;22.00;101014.00;;;;2061874;28;20229;-57
2022/06/10 03:29:34;;;;;;;1.83;1.23;;;;;22.00;101015.00;;;;2062233;28;20226;-56
2022/06/10 03:30:48;;;;;;;1.23;0.98;;;;;22.00;101017.00;;;;2070230;28;20597;-55
2022/06/10 03:31:51;;;;;;;1.15;1.05;;;;;22.00;101021.00;;;;2062092;28;20710;-58
2022/06/10 03:33:11;;;;;;;1.38;1.10;;;;;22.00;101012.00;;;;2063997;28;20214;-60
2022/06/10 03:34:21;;;;;;;1.00;1.00;;;;;22.00;101011.00;;;;2064270;28;20266;-57
2022/06/10 03:35:25;;;;;;;1.70;1.25;;;;;22.00;101010.00;;;;2065478;28;20210;-58
2022/06/10 03:36:26;;;;;;;1.42;1.05;;;;;22.00;101013.00;;;;2063195;28;20214;-57
2022/06/10 03:37:26;;;;;;;1.60;1.47;;;;;22.00;101014.00;;;;2061492;28;20706;-57
2022/06/10 03:38:28;;;;;;;1.73;1.33;;;;;22.00;101019.00;;;;2053475;28;21196;-63
2022/06/10 03:39:28;;;;;;;1.25;1.15;;;;;22.00;101013.00;;;;2066224;28;20653;-57
2022/06/10 03:40:29;;;;;;;1.03;0.93;;;;;22.00;101011.00;;;;2070579;28;20276;-57
2022/06/10 03:41:41;;;;;;;1.40;1.30;;;;;22.00;101012.00;;;;2047960;28;20216;-57
2022/06/10 03:42:45;;;;;;;1.25;1.15;;;;;22.00;101014.00;;;;2067510;28;20314;-60
2022/06/10 03:43:46;;;;;;;1.30;1.20;;;;;22.00;101013.00;;;;2079283;28;20800;-60
2022/06/10 03:44:48;;;;;;;1.27;1.17;;;;;22.00;101011.00;;;;2068999;28;20218;-57
2022/06/10 03:45:57;;;;;;;1.33;1.00;;;;;22.00;101017.00;;;;2063017;28;20210;-57
2022/06/10 03:46:58;;;;;;;1.23;0.90;;;;;22.00;101021.00;;;;2043138;28;20291;-59
2022/06/10 03:47:58;;;;;;;1.10;1.00;;;;;22.00;101026.00;;;;2063230;28;20218;-58
2022/06/10 03:49:01;;;;;;;1.33;1.10;;;;;22.00;101020.00;;;;2070024;28;20268;-58
2022/06/10 03:50:07;;;;;;;1.77;1.13;;;;;22.00;101030.00;;;;2062596;28;20590;-60
2022/06/10 03:51:07;;;;;;;2.03;1.00;;;;;22.00;101033.00;;;;2064010;28;20267;-58
2022/06/10 03:52:08;;;;;;;1.10;1.00;;;;;22.00;101030.00;;;;2054924;28;20224;-62
2022/06/10 03:53:13;;;;;;;1.70;1.33;;;;;22.00;101031.00;;;;2058087;28;20211;-60
2022/06/10 03:54:17;;;;;;;1.70;1.10;;;;;22.00;101029.00;;;;2071570;28;20710;-57
2022/06/10 03:55:18;;;;;;;1.55;1.13;;;;;22.00;101034.00;;;;2064371;28;20249;-61
2022/06/10 03:56:22;;;;;;;1.10;1.00;;;;;22.00;101031.00;;;;2071153;28;20713;-57
2022/06/10 03:57:23;;;;;;;1.27;1.15;;;;;21.90;101040.00;;;;2067045;28;20970;-57
2022/06/10 03:58:23;;;;;;;1.30;1.20;;;;;22.00;101017.00;;;;2066144;28;21919;-60
2022/06/10 03:59:23;;;;;;;1.30;1.20;;;;;22.00;101031.00;;;;2070971;28;20229;-60
2022/06/10 04:00:26;;;;;;;1.83;1.17;;;;;22.00;101039.00;;;;2079827;28;20218;-58
2022/06/10 04:01:26;;;;;;;1.80;1.20;;;;;22.00;101034.00;;;;2064990;28;20215;-61
2022/06/10 04:02:27;;;;;;;1.23;1.10;;;;;22.00;101040.00;;;;2070131;28;20221;-64
2022/06/10 04:03:27;;;;;;;1.37;1.13;;;;;22.00;101039.00;;;;2076115;28;20217;-58
2022/06/10 04:04:27;;;;;;;1.10;1.00;;;;;22.00;101043.00;;;;2079725;28;20223;-57
2022/06/10 04:05:28;;;;;;;1.43;1.20;;;;;22.00;101039.00;;;;2075867;28;20218;-58
2022/06/10 04:06:28;;;;;;;1.63;1.37;;;;;22.00;101053.00;;;;2071269;28;20344;-57
2022/06/10 04:07:28;;;;;;;1.20;1.10;;;;;22.00;101047.00;;;;2071058;28;20253;-58
2022/06/10 04:08:29;;;;;;;1.40;1.30;;;;;22.00;101046.00;;;;2071652;28;20210;-61
2022/06/10 04:09:29;;;;;;;1.30;1.03;;;;;22.00;101040.00;;;;2076629;28;20212;-56
2022/06/10 04:10:30;;;;;;;1.33;1.00;;;;;22.00;101046.00;;;;2072647;28;20951;-56
2022/06/10 04:11:30;;;;;;;1.03;0.90;;;;;22.00;101046.00;;;;2074425;28;20225;-57
2022/06/10 04:12:31;;;;;;;1.50;1.10;;;;;22.00;101055.00;;;;2062979;28;20211;-57
2022/06/10 04:13:31;;;;;;;1.37;1.27;;;;;22.00;101042.00;;;;2070337;28;20958;-60
2022/06/10 04:14:31;;;;;;;1.60;1.40;;;;;22.00;101044.00;;;;2070049;28;20228;-58
2022/06/10 04:15:32;;;;;;;1.27;1.00;;;;;22.00;101047.00;;;;2069982;28;20221;-56
2022/06/10 04:16:33;;;;;;;1.17;1.03;;;;;22.00;101048.00;;;;2074995;28;20241;-56
2022/06/10 04:17:33;;;;;;;1.67;1.37;;;;;22.00;101049.00;;;;2077245;28;20464;-60
2022/06/10 04:18:33;;;;;;;1.33;1.20;;;;;22.00;101048.00;;;;2070438;28;20341;-58
2022/06/10 04:19:34;;;;;;;1.17;1.07;;;;;22.00;101048.00;;;;2073990;28;20272;-56
2022/06/10 04:20:35;;;;;;;2.10;1.30;;;;;22.00;101050.00;;;;2062559;28;20226;-56
2022/06/10 04:21:36;;;;;;;1.30;1.20;;;;;22.00;101058.00;;;;2070335;28;20242;-57
2022/06/10 04:22:37;;;;;;;1.30;1.20;;;;;22.00;101074.00;;;;2070102;28;20769;-57
2022/06/10 04:23:37;;;;;;;1.20;1.10;;;;;22.00;101057.00;;;;2071639;28;20217;-62
2022/06/10 04:24:38;;;;;;;1.50;1.20;;;;;22.00;101064.00;;;;2070415;28;20214;-58
2022/06/10 04:25:38;;;;;;;1.87;1.40;;;;;22.00;101052.00;;;;2061938;28;20218;-60
2022/06/10 04:26:39;;;;;;;1.50;1.20;;;;;22.00;101053.00;;;;2072216;28;20221;-57
2022/06/10 04:27:39;;;;;;;1.30;1.17;;;;;22.00;101058.00;;;;2075090;28;20660;-56
2022/06/10 04:28:39;;;;;;;1.27;1.17;;;;;22.00;101056.00;;;;2073659;28;20222;-59
2022/06/10 04:29:40;;;;;;;1.60;1.10;;;;;22.00;101055.00;;;;2076929;28;20248;-61
2022/06/10 04:30:45;;;;;;;2.03;1.40;;;;;22.00;101054.00;;;;2073166;28;20277;-58
2022/06/10 04:31:45;;;;;;;1.48;1.27;;;;;22.00;101057.00;;;;2074826;28;20751;-57
2022/06/10 04:32:46;;;;;;;1.37;1.20;;;;;22.00;101075.00;;;;2066870;28;20211;-57
2022/06/10 04:33:46;;;;;;;1.20;1.10;;;;;22.00;101060.00;;;;2070089;28;20226;-60
2022/06/10 04:34:46;;;;;;;1.50;1.30;;;;;22.00;101056.00;;;;2076009;28;20729;-61
2022/06/10 04:35:48;;;;;;;1.10;1.00;;;;;22.00;101052.00;;;;2081789;28;20217;-58
2022/06/10 04:36:48;;;;;;;1.33;1.10;;;;;22.00;101060.00;;;;2073927;28;20218;-59
2022/06/10 04:37:49;;;;;;;1.20;1.00;;;;;22.00;101062.00;;;;2071737;28;20252;-57
2022/06/10 04:38:49;;;;;;;1.30;1.17;;;;;22.00;101062.00;;;;2070199;28;20226;-57
2022/06/10 04:39:49;;;;;;;1.47;1.37;;;;;22.00;101051.00;;;;2066818;28;20293;-58
2022/06/10 04:40:50;;;;;;;1.80;1.37;;;;;22.10;101062.00;;;;2078836;28;20221;-56
2022/06/10 04:41:51;;;;;;;1.10;1.00;;;;;22.10;101059.00;;;;2078800;28;20213;-59
2022/06/10 04:42:51;;;;;;;1.40;1.20;;;;;22.10;101062.00;;;;2078256;28;20220;-58
2022/06/10 04:43:51;;;;;;;1.27;1.13;;;;;22.10;101062.00;;;;2077422;28;20213;-58
2022/06/10 04:44:52;;;;;;;1.77;1.57;;;;;22.10;101059.00;;;;2069240;28;20238;-57
2022/06/10 04:45:53;;;;;;;1.40;1.30;;;;;22.10;101057.00;;;;2076870;28;20216;-57
2022/06/10 04:46:53;;;;;;;1.30;1.13;;;;;22.10;101061.00;;;;2078039;28;20221;-58
2022/06/10 04:47:54;;;;;;;1.20;1.10;;;;;22.10;101058.00;;;;2077884;28;20210;-58
2022/06/10 04:48:55;;;;;;;2.40;1.30;;;;;22.10;101060.00;;;;2077694;28;20613;-58
2022/06/10 04:49:59;;;;;;;1.40;1.00;;;;;22.10;101064.00;;;;2072949;28;20311;-58
2022/06/10 04:51:00;;;;;;;1.73;1.33;;;;;22.10;101066.00;;;;2070392;28;20218;-58
2022/06/10 04:52:00;;;;;;;1.23;1.13;;;;;22.10;101058.00;;;;2070359;28;20297;-58
2022/06/10 04:53:00;;;;;;;1.30;1.20;;;;;22.10;101065.00;;;;2070560;28;20697;-57
2022/06/10 04:54:01;;;;;;;1.20;1.10;;;;;22.10;101056.00;;;;2070360;28;20210;-58
2022/06/10 04:55:03;;;;;;;1.30;1.20;;;;;22.10;101059.00;;;;2070209;28;20280;-58
2022/06/10 04:56:03;;;;;;;1.55;1.15;;;;;22.10;101062.00;;;;2065049;28;20284;-58
2022/06/10 04:57:04;;;;;;;2.50;1.13;;;;;22.10;101056.00;;;;2073779;28;20259;-58
2022/06/10 04:58:04;;;;;;;1.37;1.27;;;;;22.10;101062.00;;;;2078456;28;20221;-57
2022/06/10 04:59:05;;;;;;;2.30;1.10;;;;;22.10;101061.00;;;;2078071;28;20224;-57
2022/06/10 05:00:07;;;;;;;1.83;1.20;;;;;22.10;101060.00;;;;2078308;28;20260;-58
2022/06/10 05:01:07;;;;;;;1.30;1.20;;;;;22.10;101057.00;;;;2078274;28;20221;-58
2022/06/10 05:02:07;;;;;;;1.20;1.10;;;;;22.10;101059.00;;;;2078303;28;20620;-58
2022/06/10 05:03:08;;;;;;;1.30;1.20;;;;;22.10;101057.00;;;;2078725;28;20241;-58
2022/06/10 05:04:08;;;;;;;1.30;1.20;;;;;22.10;101065.00;;;;2077524;28;20217;-58
2022/06/10 05:05:09;;;;;;;1.60;1.50;;;;;22.10;101061.00;;;;2077614;28;20855;-57
2022/06/10 05:06:09;;;;;;;1.83;1.23;;;;;22.10;101054.00;;;;2078174;28;20209;-58
2022/06/10 05:07:10;;;;;;;1.40;1.30;;;;;22.10;101053.00;;;;2069708;28;20257;-58
2022/06/10 05:08:12;;;;;;;1.40;1.30;;;;;22.10;101053.00;;;;2069505;28;20273;-58
2022/06/10 05:09:12;;;;;;;1.60;1.20;;;;;22.10;101056.00;;;;2077849;28;20213;-58
2022/06/10 05:10:12;;;;;;;1.63;1.30;;;;;22.10;101058.00;;;;2077409;28;20757;-57
2022/06/10 05:11:14;;;;;;;1.53;1.37;;;;;22.10;101052.00;;;;2077757;28;20584;-58
2022/06/10 05:12:14;;;;;;;1.60;1.45;;;;;22.10;101054.00;;;;2077360;28;20706;-58
2022/06/10 05:13:16;;;;;;;2.13;1.47;;;;;22.10;101064.00;;;;2077866;28;20404;-58
2022/06/10 05:14:17;;;;;;;1.40;1.30;;;;;22.20;101057.00;;;;2073055;28;20215;-58
2022/06/10 05:15:20;;;;;;;1.60;1.20;;;;;22.10;101060.00;;;;2070138;28;20754;-58
2022/06/10 05:16:20;;;;;;;1.42;1.25;;;;;22.20;101063.00;;;;2069578;28;20246;-57
2022/06/10 05:17:20;;;;;;;1.43;1.20;;;;;22.10;101059.00;;;;2074302;28;20299;-57
2022/06/10 05:18:22;;;;;;;1.50;1.40;;;;;22.10;101067.00;;;;2078568;28;20216;-58
2022/06/10 05:19:23;;;;;;;1.80;1.52;;;;;22.10;101056.00;;;;2078571;28;20216;-58
2022/06/10 05:20:25;;;;;;;1.60;1.10;;;;;22.10;101066.00;;;;2077867;28;20584;-58
2022/06/10 05:21:26;;;;;;;1.52;1.20;;;;;22.10;101060.00;;;;2078412;28;20225;-58
2022/06/10 05:22:26;;;;;;;1.40;1.30;;;;;22.20;101059.00;;;;2072861;28;20214;-58
2022/06/10 05:23:26;;;;;;;1.73;1.37;;;;;22.20;101065.00;;;;2070442;28;20716;-58
2022/06/10 05:24:27;;;;;;;2.60;1.47;;;;;22.20;101059.00;;;;2060463;28;20222;-58
2022/06/10 05:25:27;;;;;;;1.50;1.40;;;;;22.20;101060.00;;;;2069862;28;20304;-58
2022/06/10 05:26:29;;;;;;;1.53;1.40;;;;;22.20;101067.00;;;;2070248;28;20217;-58
2022/06/10 05:27:29;;;;;;;1.23;1.13;;;;;22.20;101064.00;;;;2068491;28;20662;-58
2022/06/10 05:28:29;;;;;;;1.57;1.10;;;;;22.20;101065.00;;;;2070416;28;20229;-57
2022/06/10 05:29:30;;;;;;;1.47;1.37;;;;;22.20;101067.00;;;;2070343;28;20222;-58